Time;durP1;ratioP1;P1;durP2;ratioP2;P2;SDS_P1;SDS_P2;PMS_P1;PMS_P2;Temp;Humidity;BMP_temperature;BMP_pressure;BME280_temperature;BME280_humidity;BME280_pressure;Samples;Min_cycle;Max_cycle;Signal;HPM_P1;HPM_P2
2022/05/04 00:01:09;;;;;;;7.45;4.40;;;;;;;;;;5036891;28;20029;-87
2022/05/04 00:03:39;;;;;;;4.65;4.15;;;;;;;;;;5052277;28;20038;-87
2022/05/04 00:06:08;;;;;;;7.25;4.72;;;;;;;;;;5052722;28;20105;-86
2022/05/04 00:08:34;;;;;;;7.60;4.47;;;;;;;;;;5052747;28;20022;-87
2022/05/04 00:11:01;;;;;;;6.78;4.60;;;;;;;;;;5037410;28;20104;-88
2022/05/04 00:13:27;;;;;;;8.38;4.90;;;;;;;;;;5040549;28;20029;-87
2022/05/04 00:15:53;;;;;;;5.65;4.13;;;;;;;;;;5056251;28;20021;-86
2022/05/04 00:18:19;;;;;;;9.45;4.70;;;;;;;;;;5040423;28;20021;-86
2022/05/04 00:20:45;;;;;;;9.43;4.70;;;;;;;;;;5040512;28;20044;-86
2022/05/04 00:23:11;;;;;;;6.57;4.78;;;;;;;;;;5040309;28;20033;-87
2022/05/04 00:25:37;;;;;;;7.88;4.57;;;;;;;;;;5040236;28;20109;-87
2022/05/04 00:28:04;;;;;;;8.52;4.80;;;;;;;;;;5040484;28;20538;-87
2022/05/04 00:30:30;;;;;;;6.70;5.20;;;;;;;;;;5055965;28;20087;-87
2022/05/04 00:32:57;;;;;;;7.93;5.28;;;;;;;;;;5040250;28;20042;-87
2022/05/04 00:35:23;;;;;;;7.22;4.72;;;;;;;;;;5040359;28;20033;-87
2022/05/04 00:37:49;;;;;;;7.90;5.22;;;;;;;;;;5039876;28;20025;-87
2022/05/04 00:40:15;;;;;;;5.72;5.13;;;;;;;;;;5040067;28;20033;-87
2022/05/04 00:42:41;;;;;;;8.30;5.78;;;;;;;;;;5039869;28;20083;-87
2022/05/04 00:45:07;;;;;;;9.55;6.38;;;;;;;;;;5039961;28;20103;-89
2022/05/04 00:47:33;;;;;;;10.32;6.55;;;;;;;;;;5039903;28;20400;-88
2022/05/04 00:50:05;;;;;;;9.77;6.35;;;;;;;;;;5055524;28;20022;-88
2022/05/04 00:52:35;;;;;;;8.23;6.20;;;;;;;;;;5040000;28;20036;-88
2022/05/04 00:55:02;;;;;;;10.02;6.13;;;;;;;;;;5039802;28;20124;-88
2022/05/04 01:00:14;;;;;;;9.65;6.03;;;;;;;;;;5040111;28;20056;-88
2022/05/04 01:02:41;;;;;;;10.90;6.20;;;;;;;;;;5054919;28;20128;-87
2022/05/04 01:05:09;;;;;;;13.48;6.85;;;;;;;;;;5039629;28;20404;-87
2022/05/04 01:07:36;;;;;;;10.93;6.70;;;;;;;;;;5039490;28;20036;-88
2022/05/04 01:10:03;;;;;;;11.25;7.05;;;;;;;;;;5039788;28;20100;-87
2022/05/04 01:12:29;;;;;;;11.75;7.25;;;;;;;;;;5039394;28;20063;-87
2022/05/04 01:14:55;;;;;;;12.57;7.07;;;;;;;;;;5039295;28;20117;-88
2022/05/04 01:17:21;;;;;;;10.23;6.63;;;;;;;;;;5039357;28;20032;-87
2022/05/04 01:19:47;;;;;;;11.57;7.32;;;;;;;;;;5039533;28;20076;-87
2022/05/04 01:22:13;;;;;;;11.55;6.95;;;;;;;;;;5039146;28;20030;-87
2022/05/04 01:24:39;;;;;;;12.68;7.47;;;;;;;;;;5038754;28;20100;-87
2022/05/04 01:27:11;;;;;;;15.48;7.63;;;;;;;;;;5039219;28;20033;-87
2022/05/04 01:29:37;;;;;;;13.32;8.05;;;;;;;;;;5038942;28;20026;-87
2022/05/04 01:32:03;;;;;;;13.73;7.65;;;;;;;;;;5039092;28;20046;-87
2022/05/04 01:34:29;;;;;;;12.68;7.78;;;;;;;;;;5054704;28;20054;-87
2022/05/04 01:36:55;;;;;;;12.02;7.63;;;;;;;;;;5038979;28;20457;-87
2022/05/04 01:39:21;;;;;;;12.10;8.02;;;;;;;;;;5039142;28;20051;-87
2022/05/04 01:42:02;;;;;;;12.50;8.25;;;;;;;;;;5038672;28;20400;-88
2022/05/04 01:44:29;;;;;;;15.13;8.50;;;;;;;;;;5039192;28;20028;-87
2022/05/04 01:46:55;;;;;;;11.82;8.13;;;;;;;;;;5038930;28;20399;-87
2022/05/04 01:49:21;;;;;;;14.90;8.80;;;;;;;;;;5038928;28;20029;-88
2022/05/04 01:51:47;;;;;;;12.60;8.70;;;;;;;;;;5039019;28;20033;-88
2022/05/04 01:54:13;;;;;;;15.20;8.68;;;;;;;;;;5038631;28;20022;-88
2022/05/04 01:56:39;;;;;;;11.35;7.82;;;;;;;;;;5038840;28;20116;-88
2022/05/04 01:59:05;;;;;;;11.48;8.07;;;;;;;;;;5038780;28;20061;-88
2022/05/04 02:01:31;;;;;;;13.18;8.65;;;;;;;;;;5038575;28;20029;-88
2022/05/04 02:03:58;;;;;;;12.23;8.40;;;;;;;;;;5038617;28;20025;-87
2022/05/04 02:06:24;;;;;;;13.75;8.27;;;;;;;;;;5054105;28;20029;-87
2022/05/04 02:08:50;;;;;;;13.82;8.57;;;;;;;;;;5053693;28;20060;-87
2022/05/04 02:11:17;;;;;;;15.20;8.32;;;;;;;;;;5038300;28;20051;-86
2022/05/04 02:13:43;;;;;;;13.88;8.77;;;;;;;;;;5053837;28;20080;-87
2022/05/04 02:16:09;;;;;;;13.02;9.40;;;;;;;;;;5038263;28;20033;-87
2022/05/04 02:18:35;;;;;;;13.00;8.73;;;;;;;;;;5038307;28;20033;-88
2022/05/04 02:21:01;;;;;;;12.52;9.35;;;;;;;;;;5053848;28;20033;-87
2022/05/04 02:23:27;;;;;;;15.20;9.75;;;;;;;;;;5038219;28;20101;-87
2022/05/04 02:25:54;;;;;;;15.63;9.73;;;;;;;;;;5038074;28;20022;-87
2022/05/04 02:28:20;;;;;;;14.32;9.73;;;;;;;;;;5038015;28;20105;-87
2022/05/04 02:30:47;;;;;;;18.05;9.95;;;;;;;;;;5038213;28;20052;-87
2022/05/04 02:33:14;;;;;;;15.50;9.13;;;;;;;;;;5037781;28;20395;-87
2022/05/04 02:38:24;;;;;;;13.55;9.63;;;;;;;;;;5038406;28;20381;-88
2022/05/04 02:40:50;;;;;;;12.85;9.90;;;;;;;;;;5038077;28;20092;-87
2022/05/04 02:43:16;;;;;;;14.68;9.98;;;;;;;;;;5037756;28;20061;-86
2022/05/04 02:45:43;;;;;;;13.32;10.02;;;;;;;;;;5053294;28;20024;-87
2022/05/04 02:48:09;;;;;;;12.48;9.30;;;;;;;;;;5037906;28;20017;-87
2022/05/04 02:50:35;;;;;;;15.85;9.27;;;;;;;;;;5037807;28;20070;-87
2022/05/04 02:53:01;;;;;;;15.30;9.63;;;;;;;;;;5052756;28;20037;-87
2022/05/04 02:55:27;;;;;;;13.70;9.40;;;;;;;;;;5037739;28;20359;-87
2022/05/04 02:57:53;;;;;;;13.63;9.35;;;;;;;;;;5037857;28;20025;-87
2022/05/04 03:00:19;;;;;;;17.42;10.52;;;;;;;;;;5052716;28;20033;-87
2022/05/04 03:02:46;;;;;;;13.05;8.98;;;;;;;;;;5037714;28;20033;-87
2022/05/04 03:05:13;;;;;;;17.75;9.95;;;;;;;;;;5037522;28;20104;-87
2022/05/04 03:07:39;;;;;;;13.52;9.15;;;;;;;;;;5037380;28;20017;-87
2022/05/04 03:10:05;;;;;;;16.85;10.25;;;;;;;;;;5037461;28;20148;-87
2022/05/04 03:12:32;;;;;;;13.85;9.68;;;;;;;;;;5037147;28;20118;-87
2022/05/04 03:14:58;;;;;;;14.30;9.65;;;;;;;;;;5037471;28;20063;-87
2022/05/04 03:17:24;;;;;;;16.40;9.70;;;;;;;;;;5037532;28;20029;-85
2022/05/04 03:19:50;;;;;;;13.73;10.30;;;;;;;;;;5037390;28;20028;-86
2022/05/04 03:22:16;;;;;;;17.17;10.20;;;;;;;;;;5036449;28;20108;-87
2022/05/04 03:24:42;;;;;;;21.05;11.98;;;;;;;;;;5037381;28;20424;-87
2022/05/04 03:27:08;;;;;;;16.52;10.90;;;;;;;;;;5037384;28;20021;-87
2022/05/04 03:29:35;;;;;;;18.58;12.20;;;;;;;;;;5040927;28;20024;-85
2022/05/04 03:32:03;;;;;;;27.73;16.90;;;;;;;;;;5057032;28;20032;-86
2022/05/04 03:34:29;;;;;;;27.00;18.77;;;;;;;;;;5056970;28;20063;-86
2022/05/04 03:36:55;;;;;;;50.83;34.10;;;;;;;;;;5072476;28;20037;-87
2022/05/04 03:39:21;;;;;;;48.72;29.67;;;;;;;;;;5057159;28;20056;-88
2022/05/04 03:41:47;;;;;;;37.92;23.42;;;;;;;;;;5054882;28;20025;-85
2022/05/04 03:44:13;;;;;;;26.55;16.88;;;;;;;;;;5057258;28;20021;-86
2022/05/04 03:46:43;;;;;;;30.10;16.08;;;;;;;;;;5057851;28;20021;-87
2022/05/04 03:49:09;;;;;;;18.50;13.32;;;;;;;;;;5061438;28;20400;-87
2022/05/04 03:51:36;;;;;;;18.30;12.80;;;;;;;;;;5060454;28;20032;-88
2022/05/04 03:54:02;;;;;;;18.27;12.18;;;;;;;;;;5060131;28;20426;-87
2022/05/04 03:56:28;;;;;;;25.13;16.00;;;;;;;;;;5059982;28;20029;-87
2022/05/04 03:58:54;;;;;;;30.15;19.15;;;;;;;;;;5059860;28;20036;-88
2022/05/04 04:01:20;;;;;;;28.10;19.88;;;;;;;;;;5060915;28;20021;-87
2022/05/04 04:03:46;;;;;;;25.58;17.45;;;;;;;;;;5060819;28;20025;-87
2022/05/04 04:06:12;;;;;;;27.95;17.80;;;;;;;;;;5060776;28;20090;-87
2022/05/04 04:08:39;;;;;;;24.90;15.20;;;;;;;;;;5059376;28;20367;-88
2022/05/04 04:11:06;;;;;;;22.75;14.82;;;;;;;;;;5060650;28;20116;-87
2022/05/04 04:13:32;;;;;;;24.65;13.95;;;;;;;;;;5060659;28;20071;-87
2022/05/04 04:15:58;;;;;;;19.25;12.77;;;;;;;;;;5060480;28;20410;-88
2022/05/04 04:18:25;;;;;;;24.98;15.77;;;;;;;;;;5060522;28;20025;-87
2022/05/04 04:23:37;;;;;;;18.55;12.05;;;;;;;;;;5060721;28;20036;-88
2022/05/04 04:26:04;;;;;;;16.50;11.80;;;;;;;;;;5060587;28;20100;-87
2022/05/04 04:28:30;;;;;;;15.77;10.98;;;;;;;;;;5060324;28;20064;-87
2022/05/04 04:30:56;;;;;;;16.60;11.02;;;;;;;;;;5060474;28;20035;-87
2022/05/04 04:33:26;;;;;;;19.95;10.88;;;;;;;;;;5060093;28;20209;-88
2022/05/04 04:35:52;;;;;;;18.02;10.77;;;;;;;;;;5060109;28;20040;-87
2022/05/04 04:38:19;;;;;;;12.63;10.30;;;;;;;;;;5060321;28;20024;-88
2022/05/04 04:40:45;;;;;;;19.63;11.68;;;;;;;;;;5059019;28;20124;-87
2022/05/04 04:43:11;;;;;;;15.70;11.68;;;;;;;;;;5059860;28;20024;-87
2022/05/04 04:45:37;;;;;;;15.18;10.85;;;;;;;;;;5060134;28;20021;-87
2022/05/04 04:48:03;;;;;;;18.33;11.20;;;;;;;;;;5046158;28;20443;-88
2022/05/04 04:50:29;;;;;;;15.90;10.93;;;;;;;;;;5038825;28;20034;-88
2022/05/04 04:52:55;;;;;;;19.00;11.50;;;;;;;;;;5039878;28;20029;-87
2022/05/04 04:55:21;;;;;;;17.05;11.63;;;;;;;;;;5040067;28;20120;-87
2022/05/04 04:57:47;;;;;;;15.20;11.18;;;;;;;;;;5038867;28;20045;-88
2022/05/04 05:00:14;;;;;;;18.15;11.60;;;;;;;;;;5039470;28;20030;-87
2022/05/04 05:02:40;;;;;;;16.35;11.38;;;;;;;;;;5039783;28;20397;-87
2022/05/04 05:05:07;;;;;;;16.67;11.32;;;;;;;;;;5039576;28;20021;-88
2022/05/04 05:07:33;;;;;;;18.70;12.38;;;;;;;;;;5039516;28;20030;-88
2022/05/04 05:09:59;;;;;;;16.73;11.45;;;;;;;;;;5039913;28;20041;-87
2022/05/04 05:12:25;;;;;;;16.40;11.32;;;;;;;;;;5038143;28;20036;-87
2022/05/04 05:17:36;;;;;;;16.30;11.43;;;;;;;;;;5039609;28;20039;-88
2022/05/04 05:20:04;;;;;;;14.02;11.27;;;;;;;;;;5039416;28;20034;-88
2022/05/04 05:22:30;;;;;;;16.77;11.57;;;;;;;;;;5039583;28;20297;-88
2022/05/04 05:24:56;;;;;;;19.52;12.07;;;;;;;;;;5039911;28;20087;-87
2022/05/04 05:27:22;;;;;;;17.65;10.15;;;;;;;;;;5059311;28;20021;-88
2022/05/04 05:29:49;;;;;;;16.17;10.27;;;;;;;;;;5059461;28;20037;-88
2022/05/04 05:32:15;;;;;;;16.90;10.55;;;;;;;;;;5057877;28;20040;-87
2022/05/04 05:34:41;;;;;;;17.13;11.13;;;;;;;;;;5058694;28;20144;-87
2022/05/04 05:37:07;;;;;;;15.60;11.10;;;;;;;;;;5058905;28;20056;-88
2022/05/04 05:39:33;;;;;;;14.95;10.90;;;;;;;;;;5059098;28;20025;-87
2022/05/04 05:41:59;;;;;;;23.33;11.82;;;;;;;;;;5059083;28;20083;-87
2022/05/04 05:44:25;;;;;;;21.88;11.95;;;;;;;;;;5059045;28;20101;-87
2022/05/04 05:46:51;;;;;;;21.52;12.30;;;;;;;;;;5058366;28;20033;-88
2022/05/04 05:49:18;;;;;;;17.92;10.88;;;;;;;;;;5058780;28;20056;-88
2022/05/04 05:51:44;;;;;;;16.48;11.68;;;;;;;;;;5058769;28;20025;-88
2022/05/04 05:54:10;;;;;;;22.05;11.73;;;;;;;;;;5058538;28;20111;-88
2022/05/04 05:56:36;;;;;;;17.45;11.65;;;;;;;;;;5058794;28;20316;-88
2022/05/04 05:59:03;;;;;;;14.85;11.10;;;;;;;;;;5058573;28;20414;-88
2022/05/04 06:01:30;;;;;;;16.40;11.52;;;;;;;;;;5055437;28;20043;-87
2022/05/04 06:03:56;;;;;;;18.35;10.52;;;;;;;;;;5058400;28;20017;-88
2022/05/04 06:06:22;;;;;;;15.23;11.02;;;;;;;;;;5054546;28;20305;-87
2022/05/04 06:08:48;;;;;;;19.58;11.48;;;;;;;;;;5047393;28;20022;-88
2022/05/04 06:11:14;;;;;;;15.30;11.52;;;;;;;;;;5042099;28;20022;-87
2022/05/04 06:13:40;;;;;;;17.25;11.68;;;;;;;;;;5044542;28;20434;-87
2022/05/04 06:16:06;;;;;;;21.83;11.40;;;;;;;;;;5058443;28;20028;-87
2022/05/04 06:18:32;;;;;;;16.65;10.82;;;;;;;;;;5056659;28;20040;-88
2022/05/04 06:20:59;;;;;;;16.77;10.93;;;;;;;;;;5058132;28;20017;-88
2022/05/04 06:23:26;;;;;;;16.73;11.32;;;;;;;;;;5056832;28;20123;-87
2022/05/04 06:25:52;;;;;;;14.38;10.88;;;;;;;;;;5057769;28;20453;-88
2022/05/04 06:28:18;;;;;;;16.50;12.82;;;;;;;;;;5057120;28;20415;-88
2022/05/04 06:36:13;;;;;;;20.52;11.30;;;;;;;;;;5058325;28;20040;-87
2022/05/04 06:38:39;;;;;;;15.52;10.00;;;;;;;;;;5056583;28;20068;-87
2022/05/04 06:41:05;;;;;;;17.50;8.52;;;;;;;;;;5057824;28;20029;-88
2022/05/04 06:43:32;;;;;;;14.25;6.85;;;;;;;;;;5057786;28;20335;-88
2022/05/04 06:45:58;;;;;;;12.50;7.30;;;;;;;;;;5056918;28;20025;-88
2022/05/04 06:48:24;;;;;;;9.95;7.10;;;;;;;;;;5057241;28;20040;-88
2022/05/04 06:50:50;;;;;;;17.90;8.48;;;;;;;;;;5057944;28;20315;-89
2022/05/04 06:53:16;;;;;;;8.77;6.65;;;;;;;;;;5057320;28;20403;-88
2022/05/04 06:55:42;;;;;;;9.90;6.80;;;;;;;;;;5057589;28;20070;-88
2022/05/04 06:58:08;;;;;;;13.68;6.68;;;;;;;;;;5057531;28;20108;-88
2022/05/04 07:00:35;;;;;;;10.15;6.35;;;;;;;;;;5057662;28;20028;-88
2022/05/04 07:03:01;;;;;;;14.50;6.75;;;;;;;;;;5057760;28;20033;-88
2022/05/04 07:05:27;;;;;;;23.27;15.32;;;;;;;;;;5057646;28;20025;-89
2022/05/04 07:07:53;;;;;;;33.30;12.95;;;;;;;;;;5054072;28;20029;-87
2022/05/04 07:10:19;;;;;;;20.75;7.65;;;;;;;;;;5051821;28;20075;-88
2022/05/04 07:12:45;;;;;;;10.98;7.10;;;;;;;;;;5052876;28;20490;-87
2022/05/04 07:15:12;;;;;;;10.38;7.10;;;;;;;;;;5057443;28;20369;-84
2022/05/04 07:17:38;;;;;;;14.07;7.50;;;;;;;;;;5057418;28;20033;-90
2022/05/04 07:20:04;;;;;;;16.98;7.28;;;;;;;;;;5056808;28;20025;-86
2022/05/04 07:22:30;;;;;;;14.43;8.05;;;;;;;;;;5057929;28;20029;-87
2022/05/04 07:24:56;;;;;;;25.65;10.07;;;;;;;;;;5061493;28;20063;-87
2022/05/04 07:27:22;;;;;;;17.77;9.77;;;;;;;;;;5061432;28;20075;-88
2022/05/04 07:29:48;;;;;;;24.05;17.80;;;;;;;;;;5061262;28;20048;-86
2022/05/04 07:32:14;;;;;;;33.33;19.90;;;;;;;;;;5061244;28;20029;-86
2022/05/04 07:34:40;;;;;;;28.77;20.83;;;;;;;;;;5059803;28;20056;-86
2022/05/04 07:37:07;;;;;;;22.42;13.98;;;;;;;;;;5061217;28;20032;-86
2022/05/04 07:42:21;;;;;;;30.23;21.27;;;;;;;;;;5061279;28;20139;-86
2022/05/04 07:44:57;;;;;;;37.60;23.40;;;;;;;;;;5061158;28;20067;-86
2022/05/04 07:47:24;;;;;;;19.55;14.30;;;;;;;;;;5060867;28;20403;-86
2022/05/04 07:49:50;;;;;;;14.43;9.32;;;;;;;;;;5060884;28;20058;-86
2022/05/04 07:52:16;;;;;;;20.98;13.40;;;;;;;;;;5061092;28;20025;-86
2022/05/04 07:54:43;;;;;;;16.45;7.18;;;;;;;;;;5061189;28;20025;-89
2022/05/04 07:57:09;;;;;;;16.88;9.00;;;;;;;;;;5060894;28;20025;-87
2022/05/04 07:59:35;;;;;;;33.95;23.05;;;;;;;;;;5059872;28;20366;-88
2022/05/04 08:04:47;;;;;;;13.63;7.32;;;;;;;;;;5061108;28;20036;-87
2022/05/04 08:07:14;;;;;;;9.27;6.68;;;;;;;;;;5060466;28;20415;-86
2022/05/04 08:09:40;;;;;;;9.30;6.80;;;;;;;;;;5060720;28;20021;-87
2022/05/04 08:12:08;;;;;;;9.95;5.55;;;;;;;;;;5059703;28;20403;-86
2022/05/04 08:14:34;;;;;;;8.48;5.70;;;;;;;;;;5060402;28;20111;-86
2022/05/04 08:17:01;;;;;;;9.20;5.97;;;;;;;;;;5060533;28;20057;-87
2022/05/04 08:19:27;;;;;;;8.45;5.32;;;;;;;;;;5060539;28;20033;-86
2022/05/04 08:21:54;;;;;;;8.68;5.70;;;;;;;;;;5060401;28;20067;-87
2022/05/04 08:24:20;;;;;;;9.68;4.93;;;;;;;;;;5059462;28;20108;-87
2022/05/04 08:26:46;;;;;;;5.63;4.68;;;;;;;;;;5060097;28;20032;-87
2022/05/04 08:29:13;;;;;;;13.77;8.93;;;;;;;;;;5057600;28;20408;-86
2022/05/04 08:31:39;;;;;;;11.88;6.72;;;;;;;;;;5042958;28;20033;-88
2022/05/04 08:34:05;;;;;;;13.75;6.30;;;;;;;;;;5039764;28;20050;-87
2022/05/04 08:36:31;;;;;;;9.80;5.60;;;;;;;;;;5040317;28;20036;-87
2022/05/04 08:38:57;;;;;;;7.88;4.47;;;;;;;;;;5040173;28;20029;-87
2022/05/04 08:41:23;;;;;;;10.77;4.82;;;;;;;;;;5040318;28;20045;-87
2022/05/04 08:43:51;;;;;;;4.95;3.83;;;;;;;;;;5039114;28;20411;-87
2022/05/04 08:46:19;;;;;;;10.15;4.47;;;;;;;;;;5039987;28;20026;-88
2022/05/04 08:48:45;;;;;;;10.07;5.55;;;;;;;;;;5040007;28;20029;-88
2022/05/04 08:51:11;;;;;;;11.32;4.13;;;;;;;;;;5039971;28;20447;-88
2022/05/04 08:53:39;;;;;;;6.90;3.63;;;;;;;;;;5038831;28;20043;-87
2022/05/04 08:56:06;;;;;;;9.30;4.05;;;;;;;;;;5039887;28;20033;-89
2022/05/04 08:58:34;;;;;;;14.05;3.80;;;;;;;;;;5037885;28;20033;-87
2022/05/04 09:01:02;;;;;;;10.25;3.70;;;;;;;;;;5039747;28;20427;-88
2022/05/04 09:03:29;;;;;;;20.73;4.90;;;;;;;;;;5038193;28;20046;-88
2022/05/04 09:05:55;;;;;;;13.65;4.68;;;;;;;;;;5039884;28;20026;-87
2022/05/04 09:08:23;;;;;;;8.27;3.75;;;;;;;;;;5039488;28;20053;-86
2022/05/04 09:10:50;;;;;;;6.78;4.15;;;;;;;;;;5039613;28;20029;-87
2022/05/04 09:13:18;;;;;;;11.73;6.55;;;;;;;;;;5039433;28;20053;-86
2022/05/04 09:15:45;;;;;;;15.35;7.30;;;;;;;;;;5039673;28;20029;-87
2022/05/04 09:18:13;;;;;;;14.85;7.60;;;;;;;;;;5039447;28;20467;-87
2022/05/04 09:20:58;;;;;;;17.20;5.40;;;;;;;;;;5039636;28;20108;-88
2022/05/04 09:23:24;;;;;;;16.27;6.50;;;;;;;;;;5039233;28;20033;-87
2022/05/04 09:26:01;;;;;;;7.78;4.60;;;;;;;;;;5037518;28;20030;-88
2022/05/04 09:28:28;;;;;;;9.35;5.63;;;;;;;;;;5038372;28;20438;-87
2022/05/04 09:30:59;;;;;;;15.55;7.55;;;;;;;;;;5038312;28;20320;-88
2022/05/04 09:33:29;;;;;;;13.90;8.57;;;;;;;;;;5039040;28;20067;-89
2022/05/04 09:35:56;;;;;;;10.20;4.20;;;;;;;;;;5039071;28;20025;-87
2022/05/04 09:46:42;;;;;;;7.88;5.18;;;;;;;;;;5039202;28;20116;-88
2022/05/04 09:49:33;;;;;;;7.03;3.90;;;;;;;;;;5038341;28;20018;-89
2022/05/04 09:52:02;;;;;;;9.15;4.80;;;;;;;;;;4997949;28;20381;-88
2022/05/04 09:54:28;;;;;;;7.10;4.47;;;;;;;;;;4997749;28;20133;-89
2022/05/04 09:56:58;;;;;;;5.43;3.53;;;;;;;;;;4997678;28;20030;-88
2022/05/04 09:59:31;;;;;;;12.73;3.45;;;;;;;;;;4997579;28;20030;-87
2022/05/04 10:01:59;;;;;;;4.80;2.97;;;;;;;;;;4981127;28;20034;-87
2022/05/04 10:04:25;;;;;;;7.22;3.40;;;;;;;;;;4980443;28;20037;-88
2022/05/04 10:06:52;;;;;;;31.10;15.25;;;;;;;;;;4981314;28;20022;-88
2022/05/04 10:09:20;;;;;;;32.47;23.50;;;;;;;;;;4981440;28;20077;-87
2022/05/04 10:11:47;;;;;;;12.82;6.07;;;;;;;;;;4997435;28;20460;-87
2022/05/04 10:14:17;;;;;;;20.15;9.70;;;;;;;;;;4997405;28;20041;-87
2022/05/04 10:17:01;;;;;;;8.52;3.47;;;;;;;;;;4997417;28;20038;-88
2022/05/04 10:19:29;;;;;;;9.07;3.67;;;;;;;;;;4981014;28;20061;-89
2022/05/04 10:21:58;;;;;;;19.10;4.03;;;;;;;;;;4997107;28;20046;-89
2022/05/04 10:24:26;;;;;;;19.52;8.25;;;;;;;;;;4996888;28;20026;-88
2022/05/04 10:27:00;;;;;;;34.72;24.80;;;;;;;;;;4980971;28;20149;-87
2022/05/04 10:32:31;;;;;;;5.60;2.92;;;;;;;;;;5038401;28;20091;-89
2022/05/04 10:35:09;;;;;;;7.05;3.13;;;;;;;;;;5037677;28;20061;-90
2022/05/04 10:37:51;;;;;;;9.65;4.03;;;;;;;;;;5037888;28;20056;-89
2022/05/04 10:40:22;;;;;;;579.78;473.23;;;;;;;;;;5037816;28;20067;-87
2022/05/04 10:42:59;;;;;;;38.40;29.27;;;;;;;;;;5036953;28;20041;-90
2022/05/04 10:45:29;;;;;;;23.05;16.65;;;;;;;;;;5037783;28;20411;-89
2022/05/04 10:48:03;;;;;;;16.23;11.18;;;;;;;;;;5037910;28;20025;-89
2022/05/04 10:50:46;;;;;;;7.10;3.53;;;;;;;;;;5037912;28;20021;-89
2022/05/04 10:53:38;;;;;;;6.45;3.08;;;;;;;;;;5037881;28;20056;-88
2022/05/04 10:56:06;;;;;;;4.50;2.53;;;;;;;;;;5034803;28;20108;-89
2022/05/04 10:58:32;;;;;;;5.55;2.50;;;;;;;;;;5037735;28;20044;-88
2022/05/04 11:01:13;;;;;;;4.15;2.72;;;;;;;;;;5037661;28;20037;-88
2022/05/04 11:03:58;;;;;;;6.60;3.20;;;;;;;;;;5037649;28;20116;-89
2022/05/04 11:06:32;;;;;;;6.47;3.08;;;;;;;;;;5037961;28;20467;-90
2022/05/04 11:09:04;;;;;;;11.07;3.33;;;;;;;;;;5037725;28;20021;-89
2022/05/04 11:11:31;;;;;;;7.55;4.30;;;;;;;;;;5038032;28;20315;-90
2022/05/04 11:13:57;;;;;;;5.38;3.22;;;;;;;;;;5036104;28;20030;-90
2022/05/04 11:16:24;;;;;;;10.63;3.75;;;;;;;;;;5036272;28;20428;-90
2022/05/04 11:18:51;;;;;;;6.63;3.05;;;;;;;;;;5037688;28;20029;-90
2022/05/04 11:21:18;;;;;;;10.15;3.42;;;;;;;;;;5036421;28;20442;-90
2022/05/04 11:23:51;;;;;;;8.05;3.40;;;;;;;;;;5036486;28;20025;-90
2022/05/04 11:26:33;;;;;;;6.80;3.40;;;;;;;;;;5036569;28;20053;-90
2022/05/04 11:28:59;;;;;;;;;;;;;;;;;;5036821;28;20120;-90
2022/05/04 11:31:25;;;;;;;4.53;2.95;;;;;;;;;;5037579;28;19936;-90
2022/05/04 11:33:51;;;;;;;4.03;2.67;;;;;;;;;;5037245;28;20112;-89
2022/05/04 11:36:18;;;;;;;5.10;3.00;;;;;;;;;;5037188;28;20128;-90
2022/05/04 11:38:45;;;;;;;6.40;3.35;;;;;;;;;;5037436;28;20311;-90
2022/05/04 11:41:11;;;;;;;4.32;2.95;;;;;;;;;;5037373;28;20358;-90
2022/05/04 11:43:38;;;;;;;4.53;2.80;;;;;;;;;;5037127;28;20045;-90
2022/05/04 11:46:12;;;;;;;6.75;2.80;;;;;;;;;;5035869;28;20029;-87
2022/05/04 11:48:42;;;;;;;3.97;2.90;;;;;;;;;;5036276;28;20026;-90
2022/05/04 11:51:08;;;;;;;3.38;2.67;;;;;;;;;;5037385;28;20200;-90
2022/05/04 11:53:34;;;;;;;5.70;3.10;;;;;;;;;;5037297;28;20036;-91
2022/05/04 11:56:03;;;;;;;3.03;2.80;;;;;;;;;;5037491;28;20036;-90
2022/05/04 11:58:30;;;;;;;6.35;3.15;;;;;;;;;;5036907;28;20026;-91
2022/05/04 12:00:56;;;;;;;7.20;3.17;;;;;;;;;;5036199;28;20063;-90
2022/05/04 12:03:24;;;;;;;6.22;4.15;;;;;;;;;;5035930;28;20412;-90
2022/05/04 12:05:50;;;;;;;9.80;5.80;;;;;;;;;;5036980;28;20415;-90
2022/05/04 12:08:19;;;;;;;5.38;3.15;;;;;;;;;;5039132;28;20030;-90
2022/05/04 12:10:45;;;;;;;5.97;3.05;;;;;;;;;;5040718;28;20029;-90
2022/05/04 12:13:14;;;;;;;6.03;3.90;;;;;;;;;;5040670;28;20031;-90
2022/05/04 12:15:41;;;;;;;11.48;4.10;;;;;;;;;;5040604;28;20097;-90
2022/05/04 12:18:07;;;;;;;6.70;4.82;;;;;;;;;;5023374;28;20064;-90
2022/05/04 12:20:34;;;;;;;6.35;3.50;;;;;;;;;;5039156;28;20056;-90
2022/05/04 12:23:01;;;;;;;7.07;3.50;;;;;;;;;;5040446;28;20036;-90
2022/05/04 12:25:27;;;;;;;6.00;4.20;;;;;;;;;;5040762;28;20030;-91
2022/05/04 12:27:55;;;;;;;6.57;3.67;;;;;;;;;;5046380;28;20031;-91
2022/05/04 12:33:10;;;;;;;7.55;3.60;;;;;;;;;;5046234;28;20114;-92
2022/05/04 12:35:37;;;;;;;5.22;3.53;;;;;;;;;;5045691;28;20029;-90
2022/05/04 16:41:58;;;;;;;20.10;9.77;;;;;;;;;;5115312;27;20433;-85
2022/05/04 16:44:24;;;;;;;11.45;5.03;;;;;;;;;;5115298;28;20366;-86
2022/05/04 16:46:52;;;;;;;6.53;3.95;;;;;;;;;;5131407;28;20020;-87
2022/05/04 16:49:18;;;;;;;17.75;3.05;;;;;;;;;;5115533;28;20039;-87
2022/05/04 16:51:44;;;;;;;6.63;2.72;;;;;;;;;;5115329;28;20047;-87
2022/05/04 16:54:10;;;;;;;3.38;2.50;;;;;;;;;;5131031;28;20325;-87
2022/05/04 16:56:36;;;;;;;32.67;4.78;;;;;;;;;;5132948;28;20400;-87
2022/05/04 16:59:03;;;;;;;5.28;2.42;;;;;;;;;;5135923;27;20046;-86
2022/05/04 17:01:29;;;;;;;7.90;4.47;;;;;;;;;;5135514;27;20027;-87
2022/05/04 17:03:56;;;;;;;12.95;3.45;;;;;;;;;;5134637;28;20027;-87
2022/05/04 17:06:22;;;;;;;6.78;3.05;;;;;;;;;;5135738;27;20031;-87
2022/05/04 17:08:48;;;;;;;3.92;2.70;;;;;;;;;;5135481;27;20030;-87
2022/05/04 17:11:14;;;;;;;5.75;2.63;;;;;;;;;;5134063;28;20039;-87
2022/05/04 17:13:40;;;;;;;5.13;3.15;;;;;;;;;;5135415;27;20027;-87
2022/05/04 17:16:07;;;;;;;8.35;3.70;;;;;;;;;;5135436;27;20054;-87
2022/05/04 17:18:33;;;;;;;6.30;3.78;;;;;;;;;;5135266;27;20072;-87
2022/05/04 17:20:59;;;;;;;8.43;4.07;;;;;;;;;;5135421;27;20027;-86
2022/05/04 17:23:25;;;;;;;14.00;4.38;;;;;;;;;;5135430;27;20316;-87
2022/05/04 17:25:51;;;;;;;10.88;4.38;;;;;;;;;;5124172;27;20026;-86
2022/05/04 17:28:18;;;;;;;8.48;3.83;;;;;;;;;;5113679;28;20020;-87
2022/05/04 17:30:44;;;;;;;7.25;3.50;;;;;;;;;;5114703;28;20099;-87
2022/05/04 17:38:40;;;;;;;7.50;4.50;;;;;;;;;;5111534;28;20035;-87
2022/05/04 17:41:07;;;;;;;6.25;4.40;;;;;;;;;;5112073;28;20329;-87
2022/05/04 17:43:33;;;;;;;6.95;5.00;;;;;;;;;;5113992;28;20077;-86
2022/05/04 17:45:59;;;;;;;8.95;3.83;;;;;;;;;;5114077;28;20065;-87
2022/05/04 17:48:25;;;;;;;6.47;3.83;;;;;;;;;;5114289;28;20020;-86
2022/05/04 17:50:51;;;;;;;7.43;4.10;;;;;;;;;;5114100;28;20024;-87
2022/05/04 17:53:17;;;;;;;6.43;4.28;;;;;;;;;;5099525;28;20035;-86
2022/05/04 17:55:43;;;;;;;5.03;3.50;;;;;;;;;;5100119;28;20039;-86
2022/05/04 17:58:09;;;;;;;5.60;4.10;;;;;;;;;;5099948;28;20160;-87
2022/05/04 18:00:35;;;;;;;9.95;5.00;;;;;;;;;;5097521;28;20045;-86
2022/05/04 18:05:46;;;;;;;9.48;6.63;;;;;;;;;;5107823;28;20043;-86
2022/05/04 18:08:12;;;;;;;12.35;5.72;;;;;;;;;;5101997;28;20410;-87
2022/05/04 18:10:39;;;;;;;8.50;6.13;;;;;;;;;;5119337;28;20059;-90
2022/05/04 18:13:05;;;;;;;8.55;5.32;;;;;;;;;;5119725;28;20032;-90
2022/05/04 18:15:31;;;;;;;8.20;5.45;;;;;;;;;;5119810;28;20024;-90
2022/05/04 18:17:57;;;;;;;8.98;6.07;;;;;;;;;;5120784;27;20023;-89
2022/05/04 18:20:23;;;;;;;13.90;5.93;;;;;;;;;;5120508;28;20027;-90
2022/05/04 18:22:49;;;;;;;8.82;4.38;;;;;;;;;;5120631;27;20443;-91
2022/05/04 18:25:16;;;;;;;8.65;4.00;;;;;;;;;;5119123;28;20448;-89
2022/05/04 18:27:42;;;;;;;7.43;3.83;;;;;;;;;;5119535;28;20106;-90
2022/05/04 18:30:09;;;;;;;5.35;3.38;;;;;;;;;;5120209;28;20019;-90
2022/05/04 18:32:36;;;;;;;4.50;2.90;;;;;;;;;;5119022;28;20039;-90
2022/05/04 18:35:02;;;;;;;4.82;3.42;;;;;;;;;;5118877;28;20032;-90
2022/05/04 18:37:28;;;;;;;6.35;3.63;;;;;;;;;;5119040;28;20043;-90
2022/05/04 18:39:54;;;;;;;6.07;4.05;;;;;;;;;;5120213;28;20046;-90
2022/05/04 18:42:20;;;;;;;9.15;4.25;;;;;;;;;;5118887;28;20027;-90
2022/05/04 18:44:46;;;;;;;9.45;3.22;;;;;;;;;;5120230;28;20016;-90
2022/05/04 18:47:12;;;;;;;10.43;3.30;;;;;;;;;;5119966;28;20397;-90
2022/05/04 18:49:38;;;;;;;26.90;3.67;;;;;;;;;;5119124;28;20030;-90
2022/05/04 18:52:06;;;;;;;13.88;3.55;;;;;;;;;;5120040;28;20012;-91
2022/05/04 18:54:32;;;;;;;7.63;2.78;;;;;;;;;;5119749;28;20099;-89
2022/05/04 18:57:00;;;;;;;5.40;3.92;;;;;;;;;;5118909;28;20069;-90
2022/05/04 18:59:26;;;;;;;9.23;3.90;;;;;;;;;;5119749;28;20028;-90
2022/05/04 19:01:52;;;;;;;6.70;3.90;;;;;;;;;;5119876;28;20443;-90
2022/05/04 19:04:18;;;;;;;7.07;3.80;;;;;;;;;;5118835;28;20038;-90
2022/05/04 19:06:44;;;;;;;6.30;3.30;;;;;;;;;;5119321;28;20020;-90
2022/05/04 19:09:10;;;;;;;7.07;3.50;;;;;;;;;;5118154;28;20032;-90
2022/05/04 19:11:37;;;;;;;5.38;3.78;;;;;;;;;;5119473;28;20054;-90
2022/05/04 19:14:04;;;;;;;8.80;3.63;;;;;;;;;;5119613;28;20019;-91
2022/05/04 19:16:30;;;;;;;6.70;3.40;;;;;;;;;;5119197;28;20032;-91
2022/05/04 19:18:56;;;;;;;6.82;3.60;;;;;;;;;;5119549;28;20020;-91